createdAt,value
2022-08-07T00:02:40.398Z,12.10
2022-08-07T00:05:00.020Z,12.10
2022-08-07T00:07:27.569Z,12.10
2022-08-07T00:10:26.642Z,12.10
2022-08-07T00:13:00.707Z,12.10
2022-08-07T00:15:37.663Z,12.10
2022-08-07T00:18:19.464Z,12.00
2022-08-07T00:20:49.544Z,12.10
2022-08-07T00:23:17.216Z,12.00
2022-08-07T00:25:52.559Z,12.00
2022-08-07T00:28:31.562Z,12.00
2022-08-07T00:31:06.070Z,12.00
2022-08-07T00:33:34.158Z,12.00
2022-08-07T00:36:01.212Z,11.90
2022-08-07T00:38:31.552Z,11.90
2022-08-07T00:40:59.928Z,11.80
2022-08-07T00:43:59.538Z,11.70
2022-08-07T00:46:14.554Z,11.70
2022-08-07T00:48:42.304Z,11.80
2022-08-07T00:51:10.581Z,11.80
2022-08-07T00:53:39.191Z,11.80
2022-08-07T00:56:17.487Z,11.80
2022-08-07T00:58:46.697Z,11.80
2022-08-07T01:01:16.090Z,11.80
2022-08-07T01:03:56.438Z,11.70
2022-08-07T01:06:27.686Z,11.70
2022-08-07T01:08:56.284Z,11.60
2022-08-07T01:12:23.335Z,11.60
2022-08-07T01:14:28.517Z,11.50
2022-08-07T01:16:56.533Z,11.50
2022-08-07T01:19:24.949Z,11.40
2022-08-07T01:21:53.504Z,11.30
2022-08-07T01:24:23.474Z,11.40
2022-08-07T01:26:52.473Z,11.40
2022-08-07T01:29:27.771Z,11.30
2022-08-07T01:31:59.392Z,11.20
2022-08-07T01:34:30.771Z,11.20
2022-08-07T01:36:58.818Z,11.20
2022-08-07T01:39:40.664Z,11.30
2022-08-07T01:42:38.812Z,11.40
2022-08-07T01:45:04.169Z,11.50
2022-08-07T01:48:19.445Z,11.70
2022-08-07T01:50:22.749Z,11.80
2022-08-07T01:52:58.403Z,11.90
2022-08-07T01:55:39.687Z,12.10
2022-08-07T01:58:27.265Z,12.20
2022-08-07T02:01:25.400Z,12.30
2022-08-07T02:04:10.359Z,12.30
2022-08-07T02:06:39.956Z,12.40
2022-08-07T02:09:11.668Z,12.40
2022-08-07T02:12:04.617Z,12.30
2022-08-07T02:14:36.245Z,12.30
2022-08-07T02:17:10.945Z,12.20
2022-08-07T02:20:05.339Z,12.10
2022-08-07T02:22:30.497Z,11.90
2022-08-07T02:24:59.196Z,11.90
2022-08-07T02:27:34.447Z,11.80
2022-08-07T02:30:07.014Z,11.60
2022-08-07T02:33:00.743Z,11.40
2022-08-07T02:36:29.500Z,11.40
2022-08-07T02:38:16.896Z,11.50
2022-08-07T02:40:55.305Z,11.30
2022-08-07T02:43:23.928Z,11.40
2022-08-07T02:46:00.803Z,11.40
2022-08-07T02:48:30.803Z,11.40
2022-08-07T02:51:02.472Z,11.40
2022-08-07T02:53:38.340Z,11.40
2022-08-07T02:56:12.862Z,11.30
2022-08-07T02:58:47.176Z,11.40
2022-08-07T03:01:19.194Z,11.40
2022-08-07T03:04:07.177Z,11.40
2022-08-07T03:06:37.531Z,11.40
2022-08-07T03:09:07.825Z,11.40
2022-08-07T03:11:52.529Z,11.40
2022-08-07T03:14:26.361Z,11.40
2022-08-07T03:16:56.648Z,11.40
2022-08-07T03:19:24.861Z,11.50
2022-08-07T03:21:56.958Z,11.50
2022-08-07T03:24:27.251Z,11.50
2022-08-07T03:27:00.490Z,11.60
2022-08-07T03:29:37.659Z,11.70
2022-08-07T03:32:13.065Z,11.80
2022-08-07T03:34:47.179Z,12.00
2022-08-07T03:37:29.571Z,12.20
2022-08-07T03:40:15.768Z,12.40
2022-08-07T03:42:44.225Z,12.60
2022-08-07T03:45:12.121Z,12.70
2022-08-07T03:47:57.684Z,12.80
2022-08-07T03:50:25.538Z,12.90
2022-08-07T03:52:59.428Z,13.00
2022-08-07T03:55:42.779Z,13.10
2022-08-07T03:59:07.239Z,13.10
2022-08-07T04:01:07.406Z,13.20
2022-08-07T04:03:38.852Z,13.60
2022-08-07T04:06:37.082Z,13.70
2022-08-07T04:09:06.124Z,13.50
2022-08-07T04:12:27.547Z,13.50
2022-08-07T04:14:38.064Z,13.50
2022-08-07T04:17:20.051Z,13.60
2022-08-07T04:19:52.239Z,13.70
2022-08-07T04:22:27.588Z,13.80
2022-08-07T04:24:58.104Z,14.00
2022-08-07T04:27:26.448Z,14.30
2022-08-07T04:30:01.260Z,14.60
2022-08-07T04:32:34.521Z,14.80
2022-08-07T04:35:11.420Z,15.10
2022-08-07T04:37:52.852Z,15.60
2022-08-07T04:40:26.776Z,16.20
2022-08-07T04:43:02.111Z,17.50
2022-08-07T04:46:00.536Z,18.50
2022-08-07T04:48:59.575Z,19.60
2022-08-07T04:51:45.133Z,18.80
2022-08-07T04:54:34.368Z,17.80
2022-08-07T04:58:10.445Z,17.20
2022-08-07T05:00:24.016Z,16.60
2022-08-07T05:03:31.089Z,16.20
2022-08-07T05:06:20.413Z,16.20
2022-08-07T05:09:45.954Z,16.10
2022-08-07T05:12:27.102Z,15.80
2022-08-07T05:15:04.560Z,15.80
2022-08-07T05:17:52.839Z,15.80
2022-08-07T05:20:27.087Z,15.80
2022-08-07T05:22:59.638Z,15.70
2022-08-07T05:25:37.376Z,15.70
2022-08-07T05:28:22.543Z,15.90
2022-08-07T05:30:52.645Z,15.90
2022-08-07T05:33:21.861Z,16.10
2022-08-07T05:35:51.942Z,16.20
2022-08-07T05:38:59.413Z,16.40
2022-08-07T05:41:16.606Z,16.70
2022-08-07T05:44:12.118Z,16.90
2022-08-07T05:46:38.920Z,17.00
2022-08-07T05:49:12.223Z,17.10
2022-08-07T05:51:42.326Z,17.10
2022-08-07T05:54:29.319Z,17.30
2022-08-07T05:56:59.195Z,17.50
2022-08-07T05:59:28.005Z,17.70
2022-08-07T06:01:57.466Z,17.90
2022-08-07T06:04:30.257Z,18.20
2022-08-07T06:07:03.978Z,18.70
2022-08-07T06:10:04.245Z,20.50
2022-08-07T06:12:27.822Z,21.90
2022-08-07T06:15:05.563Z,24.40
2022-08-07T06:17:37.549Z,25.90
2022-08-07T06:20:12.445Z,27.00
2022-08-07T06:23:01.906Z,28.10
2022-08-07T06:25:34.735Z,28.70
2022-08-07T06:28:06.366Z,27.90
2022-08-07T06:30:37.956Z,26.70
2022-08-07T06:33:16.309Z,27.60
2022-08-07T06:35:47.871Z,28.50
2022-08-07T06:38:31.887Z,29.40
2022-08-07T06:41:01.419Z,30.30
2022-08-07T06:43:39.949Z,31.20
2022-08-07T06:46:15.809Z,31.20
2022-08-07T06:48:58.415Z,30.90
2022-08-07T06:51:33.481Z,31.20
2022-08-07T06:55:30.121Z,31.40
2022-08-07T06:56:55.552Z,32.00
2022-08-07T07:00:12.146Z,32.20
2022-08-07T07:02:48.161Z,32.30
2022-08-07T07:05:14.345Z,30.70
2022-08-07T07:08:07.167Z,31.20
2022-08-07T07:10:37.759Z,31.70
2022-08-07T07:13:14.504Z,31.40
2022-08-07T07:15:53.683Z,32.10
2022-08-07T07:18:47.287Z,31.40
2022-08-07T07:21:19.355Z,31.70
2022-08-07T07:24:10.219Z,31.20
2022-08-07T07:26:37.773Z,30.80
2022-08-07T07:29:28.592Z,30.80
2022-08-07T07:32:03.625Z,31.80
2022-08-07T07:34:33.076Z,32.20
2022-08-07T07:37:14.364Z,31.80
2022-08-07T07:39:54.246Z,31.50
2022-08-07T07:42:32.902Z,32.80
2022-08-07T07:45:02.854Z,32.00
2022-08-07T07:47:51.827Z,32.00
2022-08-07T07:50:34.815Z,32.10
2022-08-07T07:53:20.747Z,29.80
2022-08-07T07:55:57.691Z,28.10
2022-08-07T07:58:40.238Z,28.30
2022-08-07T08:02:02.263Z,29.10
2022-08-07T08:04:09.797Z,30.40
2022-08-07T08:06:50.855Z,32.10
2022-08-07T08:09:22.713Z,32.90
2022-08-07T08:12:02.157Z,33.40
2022-08-07T08:14:44.192Z,33.50
2022-08-07T08:17:56.305Z,34.50
2022-08-07T08:20:19.264Z,33.20
2022-08-07T08:23:14.545Z,31.80
2022-08-07T08:26:07.055Z,32.00
2022-08-07T08:28:44.812Z,33.50
2022-08-07T08:31:18.302Z,33.40
2022-08-07T08:34:01.156Z,34.20
2022-08-07T08:36:39.637Z,33.70
2022-08-07T08:39:15.309Z,30.70
2022-08-07T08:42:03.405Z,28.10
2022-08-07T08:44:44.604Z,26.40
2022-08-07T08:47:31.708Z,25.60
2022-08-07T08:50:44.561Z,24.80
2022-08-07T08:53:30.813Z,24.50
2022-08-07T08:56:03.287Z,24.70
2022-08-07T08:58:54.554Z,24.50
2022-08-07T09:01:49.493Z,26.30
2022-08-07T09:04:16.781Z,27.70
2022-08-07T09:07:03.598Z,27.60
2022-08-07T09:09:56.826Z,26.90
2022-08-07T09:12:54.345Z,28.30
2022-08-07T09:16:25.229Z,30.90
2022-08-07T09:19:51.798Z,31.10
2022-08-07T09:24:27.181Z,32.20
2022-08-07T09:25:38.270Z,33.30
2022-08-07T09:30:04.092Z,35.00
2022-08-07T09:31:24.762Z,34.50
2022-08-07T09:34:16.794Z,35.30
2022-08-07T09:37:01.117Z,34.70
2022-08-07T09:39:53.610Z,35.60
2022-08-07T09:42:59.048Z,35.50
2022-08-07T09:47:24.646Z,33.90
2022-08-07T09:48:56.074Z,33.10
2022-08-07T09:52:16.212Z,33.70
2022-08-07T09:54:46.838Z,34.30
2022-08-07T09:57:22.184Z,34.80
2022-08-07T10:00:05.703Z,34.50
2022-08-07T10:03:08.454Z,33.80
2022-08-07T10:06:12.021Z,32.80
2022-08-07T10:09:00.643Z,32.10
2022-08-07T10:12:01.661Z,32.20
2022-08-07T10:15:00.773Z,33.00
2022-08-07T10:18:01.735Z,32.70
2022-08-07T10:20:45.477Z,34.20
2022-08-07T10:24:04.875Z,34.60
2022-08-07T10:26:52.940Z,34.50
2022-08-07T10:29:59.601Z,35.30
2022-08-07T10:32:59.686Z,35.70
2022-08-07T10:36:14.843Z,35.50
2022-08-07T10:38:48.953Z,35.30
2022-08-07T10:41:47.325Z,34.30
2022-08-07T10:44:38.231Z,33.90
2022-08-07T10:47:11.674Z,33.90
2022-08-07T10:49:51.042Z,35.20
2022-08-07T10:52:40.167Z,34.50
2022-08-07T10:55:26.981Z,34.50
2022-08-07T10:58:59.370Z,34.30
2022-08-07T11:02:27.213Z,33.00
2022-08-07T11:05:13.784Z,32.80
2022-08-07T11:08:02.721Z,32.90
2022-08-07T11:10:39.507Z,31.20
2022-08-07T11:14:44.045Z,29.00
2022-08-07T11:16:40.984Z,28.30
2022-08-07T11:19:27.436Z,28.50
2022-08-07T11:22:27.394Z,28.30
2022-08-07T11:25:23.204Z,28.10
2022-08-07T11:28:15.456Z,27.20
2022-08-07T11:30:53.408Z,26.80
2022-08-07T11:33:59.547Z,26.40
2022-08-07T11:36:50.589Z,26.20
2022-08-07T11:39:58.853Z,26.50
2022-08-07T11:42:29.705Z,26.60
2022-08-07T11:45:23.596Z,27.10
2022-08-07T11:48:30.421Z,27.30
2022-08-07T11:51:41.532Z,27.20
2022-08-07T11:54:18.060Z,27.10
2022-08-07T11:56:55.319Z,26.10
2022-08-07T12:00:10.082Z,25.10
2022-08-07T12:03:06.149Z,24.70
2022-08-07T12:06:39.009Z,24.50
2022-08-07T12:09:16.700Z,24.30
2022-08-07T12:12:09.484Z,24.30
2022-08-07T12:15:35.872Z,24.30
2022-08-07T12:18:22.111Z,24.40
2022-08-07T12:21:55.758Z,25.10
2022-08-07T12:24:37.614Z,26.80
2022-08-07T12:27:15.962Z,26.70
2022-08-07T12:29:42.954Z,26.40
2022-08-07T12:32:31.198Z,26.20
2022-08-07T12:35:00.973Z,26.00
2022-08-07T12:38:09.721Z,25.90
2022-08-07T12:40:47.962Z,25.60
2022-08-07T12:44:03.092Z,26.20
2022-08-07T12:46:26.356Z,28.00
2022-08-07T12:49:48.733Z,29.60
2022-08-07T12:52:35.704Z,30.90
2022-08-07T12:56:03.603Z,30.10
2022-08-07T12:58:35.483Z,29.10
2022-08-07T13:01:32.497Z,27.50
2022-08-07T13:04:49.084Z,26.70
2022-08-07T13:08:12.284Z,26.00
2022-08-07T13:10:51.677Z,25.90
2022-08-07T13:13:47.425Z,25.70
2022-08-07T13:16:50.978Z,25.70
2022-08-07T13:19:55.945Z,25.10
2022-08-07T13:22:42.181Z,24.80
2022-08-07T13:25:29.629Z,24.60
2022-08-07T13:28:13.809Z,24.30
2022-08-07T13:30:49.098Z,24.30
2022-08-07T13:34:31.026Z,24.30
2022-08-07T13:36:39.689Z,24.30
2022-08-07T13:39:12.939Z,24.30
2022-08-07T13:41:57.359Z,24.70
2022-08-07T13:44:34.221Z,25.00
2022-08-07T13:47:09.222Z,24.90
2022-08-07T13:50:32.659Z,24.90
2022-08-07T13:52:38.158Z,25.20
2022-08-07T13:55:19.700Z,25.70
2022-08-07T13:58:27.841Z,25.90
2022-08-07T14:01:13.932Z,25.90
2022-08-07T14:04:05.257Z,26.00
2022-08-07T14:06:35.988Z,25.20
2022-08-07T14:09:07.796Z,25.10
2022-08-07T14:11:53.733Z,25.10
2022-08-07T14:14:48.873Z,25.20
2022-08-07T14:18:12.501Z,25.10
2022-08-07T14:20:40.866Z,25.10
2022-08-07T14:23:31.505Z,24.90
2022-08-07T14:26:30.489Z,24.70
2022-08-07T14:29:06.048Z,24.80
2022-08-07T14:31:43.459Z,25.00
2022-08-07T14:34:30.617Z,25.40
2022-08-07T14:37:03.113Z,25.50
2022-08-07T14:40:16.922Z,25.40
2022-08-07T14:42:31.309Z,25.10
2022-08-07T14:47:52.998Z,24.40
2022-08-07T14:50:28.157Z,24.20
2022-08-07T14:52:56.803Z,24.10
2022-08-07T14:58:30.060Z,24.00
2022-08-07T15:03:52.421Z,23.60
2022-08-07T15:06:25.778Z,23.50
2022-08-07T15:08:55.919Z,23.50
2022-08-07T15:14:25.501Z,23.30
2022-08-07T15:17:01.946Z,23.10
2022-08-07T15:20:30.702Z,23.20
2022-08-07T15:22:33.299Z,23.30
2022-08-07T15:25:17.892Z,23.30
2022-08-07T15:31:05.296Z,23.10
2022-08-07T15:36:14.544Z,23.50
2022-08-07T15:39:06.050Z,23.60
2022-08-07T15:42:44.981Z,23.50
2022-08-07T15:44:52.118Z,23.30
2022-08-07T15:50:37.866Z,23.10
2022-08-07T15:53:25.583Z,22.90
2022-08-07T15:56:14.137Z,22.70
2022-08-07T15:58:52.492Z,22.50
2022-08-07T16:01:38.609Z,22.50
2022-08-07T16:04:14.689Z,22.40
2022-08-07T16:06:52.808Z,22.40
2022-08-07T16:09:42.251Z,22.40
2022-08-07T16:13:01.184Z,22.40
2022-08-07T16:16:47.768Z,22.50
2022-08-07T16:19:09.615Z,22.50
2022-08-07T16:22:05.596Z,22.50
2022-08-07T16:24:53.071Z,22.40
2022-08-07T16:27:59.537Z,22.50
2022-08-07T16:30:32.562Z,22.50
2022-08-07T16:34:03.256Z,22.50
2022-08-07T16:36:19.714Z,22.40
2022-08-07T16:39:06.479Z,22.40
2022-08-07T16:42:01.631Z,22.30
2022-08-07T16:45:15.577Z,22.20
2022-08-07T16:47:55.981Z,22.10
2022-08-07T16:51:20.499Z,22.10
2022-08-07T16:54:14.182Z,22.10
2022-08-07T16:58:00.672Z,22.10
2022-08-07T17:00:30.071Z,21.90
2022-08-07T17:03:06.003Z,21.70
2022-08-07T17:06:31.049Z,21.60
2022-08-07T17:09:14.312Z,21.60
2022-08-07T17:12:04.038Z,21.60
2022-08-07T17:15:16.394Z,21.60
2022-08-07T17:17:47.339Z,21.30
2022-08-07T17:20:31.828Z,21.10
2022-08-07T17:23:31.849Z,21.10
2022-08-07T17:26:24.192Z,20.90
2022-08-07T17:28:58.414Z,20.80
2022-08-07T17:32:03.351Z,20.70
2022-08-07T17:35:33.191Z,20.60
2022-08-07T17:38:05.870Z,20.40
2022-08-07T17:40:50.615Z,20.30
2022-08-07T17:44:03.221Z,20.30
2022-08-07T17:46:43.666Z,20.10
2022-08-07T17:49:23.820Z,20.00
2022-08-07T17:52:19.618Z,19.90
2022-08-07T17:54:55.325Z,19.80
2022-08-07T17:57:56.585Z,19.70
2022-08-07T18:00:34.632Z,19.60
2022-08-07T18:04:03.753Z,19.60
2022-08-07T18:06:37.104Z,19.60
2022-08-07T18:09:08.670Z,19.50
2022-08-07T18:12:16.866Z,19.40
2022-08-07T18:14:58.619Z,19.30
2022-08-07T18:18:47.599Z,19.10
2022-08-07T18:21:09.697Z,19.10
2022-08-07T18:23:59.562Z,18.90
2022-08-07T18:26:53.106Z,18.90
2022-08-07T18:30:05.978Z,18.80
2022-08-07T18:33:12.182Z,18.70
2022-08-07T18:35:57.890Z,18.50
2022-08-07T18:38:56.384Z,18.40
2022-08-07T18:41:44.729Z,18.30
2022-08-07T18:45:40.142Z,18.20
2022-08-07T18:48:04.370Z,18.10
2022-08-07T18:50:47.788Z,18.00
2022-08-07T18:53:44.263Z,17.90
2022-08-07T18:56:31.860Z,17.90
2022-08-07T18:59:47.960Z,17.70
2022-08-07T19:02:42.317Z,17.70
2022-08-07T19:06:02.017Z,17.60
2022-08-07T19:09:00.632Z,17.60
2022-08-07T19:11:37.461Z,17.50
2022-08-07T19:14:26.316Z,17.60
2022-08-07T19:17:06.845Z,17.50
2022-08-07T19:20:05.458Z,17.50
2022-08-07T19:22:45.121Z,17.40
2022-08-07T19:26:23.300Z,17.40
2022-08-07T19:28:56.401Z,17.40
2022-08-07T19:31:41.948Z,17.30
2022-08-07T19:34:03.147Z,17.30
2022-08-07T19:36:44.356Z,17.20
2022-08-07T19:39:27.913Z,17.10
2022-08-07T19:42:24.873Z,17.10
2022-08-07T19:44:55.761Z,17.00
2022-08-07T19:47:36.556Z,16.90
2022-08-07T19:50:43.688Z,16.90
2022-08-07T19:52:58.522Z,16.80
2022-08-07T19:55:56.704Z,16.80
2022-08-07T19:58:28.020Z,16.70
2022-08-07T20:00:57.970Z,16.70
2022-08-07T20:03:34.977Z,16.60
2022-08-07T20:06:15.243Z,16.50
2022-08-07T20:08:58.441Z,16.50
2022-08-07T20:12:00.913Z,16.50
2022-08-07T20:14:31.358Z,16.30
2022-08-07T20:17:04.181Z,16.10
2022-08-07T20:19:48.203Z,16.10
2022-08-07T20:22:29.159Z,16.10
2022-08-07T20:25:12.759Z,16.00
2022-08-07T20:27:57.869Z,16.00
2022-08-07T20:30:35.126Z,15.90
2022-08-07T20:33:04.903Z,15.90
2022-08-07T20:35:54.378Z,15.90
2022-08-07T20:38:32.374Z,15.90
2022-08-07T20:41:03.861Z,15.80
2022-08-07T20:43:34.062Z,15.80
2022-08-07T20:46:25.958Z,15.80
2022-08-07T20:49:54.419Z,15.80
2022-08-07T20:51:50.707Z,15.80
2022-08-07T20:54:30.073Z,15.80
2022-08-07T20:57:03.291Z,15.80
2022-08-07T21:00:07.543Z,15.80
2022-08-07T21:02:53.277Z,15.80
2022-08-07T21:05:42.890Z,15.80
2022-08-07T21:08:37.756Z,15.70
2022-08-07T21:11:16.893Z,15.70
2022-08-07T21:14:33.642Z,15.60
2022-08-07T21:18:01.176Z,15.60
2022-08-07T21:19:51.659Z,15.60
2022-08-07T21:22:30.650Z,15.60
2022-08-07T21:25:12.718Z,15.50
2022-08-07T21:27:47.051Z,15.50
2022-08-07T21:30:17.586Z,15.50
2022-08-07T21:33:06.071Z,15.50
2022-08-07T21:36:05.553Z,15.40
2022-08-07T21:38:49.967Z,15.40
2022-08-07T21:41:38.347Z,15.40
2022-08-07T21:44:53.136Z,15.40
2022-08-07T21:47:34.752Z,15.40
2022-08-07T21:50:14.412Z,15.30
2022-08-07T21:52:58.145Z,15.40
2022-08-07T21:55:31.192Z,15.40
2022-08-07T21:58:46.120Z,15.30
2022-08-07T22:01:42.259Z,15.30
2022-08-07T22:04:21.857Z,15.30
2022-08-07T22:07:03.568Z,15.30
2022-08-07T22:09:54.091Z,15.30
2022-08-07T22:12:31.726Z,15.20
2022-08-07T22:16:44.358Z,15.20
2022-08-07T22:18:20.558Z,15.30
2022-08-07T22:22:05.368Z,15.30
2022-08-07T22:24:32.637Z,15.20
2022-08-07T22:27:10.387Z,15.10
2022-08-07T22:29:48.204Z,15.10
2022-08-07T22:32:42.285Z,15.00
2022-08-07T22:35:11.928Z,15.00
2022-08-07T22:38:03.029Z,15.10
2022-08-07T22:41:02.953Z,15.10
2022-08-07T22:43:48.298Z,15.10
2022-08-07T22:47:03.688Z,15.10
2022-08-07T22:49:33.930Z,15.10
2022-08-07T22:52:43.376Z,15.10
2022-08-07T22:55:37.530Z,15.10
2022-08-07T22:58:28.012Z,15.10
2022-08-07T23:01:42.120Z,15.10
2022-08-07T23:04:57.651Z,15.00
2022-08-07T23:08:07.234Z,14.90
2022-08-07T23:11:01.799Z,14.90
2022-08-07T23:14:15.662Z,14.90
2022-08-07T23:17:21.408Z,14.80
2022-08-07T23:20:51.581Z,14.80
2022-08-07T23:24:05.966Z,14.70
2022-08-07T23:26:16.018Z,14.70
2022-08-07T23:28:56.471Z,14.60
2022-08-07T23:32:49.238Z,14.60
2022-08-07T23:35:02.345Z,14.50
2022-08-07T23:38:01.472Z,14.60
2022-08-07T23:41:08.495Z,14.50
2022-08-07T23:43:57.780Z,14.40
2022-08-07T23:47:18.842Z,14.40
2022-08-07T23:50:11.905Z,14.40
2022-08-07T23:53:05.980Z,14.30
2022-08-07T23:55:55.748Z,14.30
